sensor_id;sensor_type;location;lat;lon;timestamp;temperature;humidity
28069;DHT22;15382;47.578;8.086;2022-09-13T00:08:22;14.90;99.90
28069;DHT22;15382;47.578;8.086;2022-09-13T00:18:23;14.90;99.90
28069;DHT22;15382;47.578;8.086;2022-09-13T00:28:24;14.90;99.90
28069;DHT22;15382;47.578;8.086;2022-09-13T00:38:25;14.90;99.90
28069;DHT22;15382;47.578;8.086;2022-09-13T00:48:26;14.70;99.90
28069;DHT22;15382;47.578;8.086;2022-09-13T00:58:48;14.70;99.90
28069;DHT22;15382;47.578;8.086;2022-09-13T01:08:51;14.70;99.90
28069;DHT22;15382;47.578;8.086;2022-09-13T01:18:54;14.20;99.90
28069;DHT22;15382;47.578;8.086;2022-09-13T02:00:12;14.10;99.90
28069;DHT22;15382;47.578;8.086;2022-09-13T02:10:21;13.90;99.90
28069;DHT22;15382;47.578;8.086;2022-09-13T02:20:27;13.70;99.90
28069;DHT22;15382;47.578;8.086;2022-09-13T02:30:31;13.60;99.90
28069;DHT22;15382;47.578;8.086;2022-09-13T02:40:42;13.50;99.90
28069;DHT22;15382;47.578;8.086;2022-09-13T02:50:49;13.40;99.90
28069;DHT22;15382;47.578;8.086;2022-09-13T03:00:57;13.60;99.90
28069;DHT22;15382;47.578;8.086;2022-09-13T03:11:11;13.40;99.90
28069;DHT22;15382;47.578;8.086;2022-09-13T03:31:51;13.30;99.90
28069;DHT22;15382;47.578;8.086;2022-09-13T03:41:57;13.30;99.90
28069;DHT22;15382;47.578;8.086;2022-09-13T03:52:00;13.20;99.90
28069;DHT22;15382;47.578;8.086;2022-09-13T04:02:02;13.00;99.90
28069;DHT22;15382;47.578;8.086;2022-09-13T04:12:03;12.90;99.90
28069;DHT22;15382;47.578;8.086;2022-09-13T04:22:04;12.90;99.90
28069;DHT22;15382;47.578;8.086;2022-09-13T04:32:05;12.90;99.90
28069;DHT22;15382;47.578;8.086;2022-09-13T04:42:05;12.90;99.90
28069;DHT22;15382;47.578;8.086;2022-09-13T04:52:06;12.80;99.90
28069;DHT22;15382;47.578;8.086;2022-09-13T05:02:08;12.70;99.90
28069;DHT22;15382;47.578;8.086;2022-09-13T05:12:09;12.70;99.90
28069;DHT22;15382;47.578;8.086;2022-09-13T05:22:11;12.80;99.90
28069;DHT22;15382;47.578;8.086;2022-09-13T05:32:11;12.90;99.90
28069;DHT22;15382;47.578;8.086;2022-09-13T05:42:12;13.10;99.90
28069;DHT22;15382;47.578;8.086;2022-09-13T05:52:13;13.40;99.90
28069;DHT22;15382;47.578;8.086;2022-09-13T06:02:14;13.90;99.90
28069;DHT22;15382;47.578;8.086;2022-09-13T06:12:14;14.00;99.90
28069;DHT22;15382;47.578;8.086;2022-09-13T06:22:15;14.20;99.90
28069;DHT22;15382;47.578;8.086;2022-09-13T06:32:16;14.50;99.90
28069;DHT22;15382;47.578;8.086;2022-09-13T06:42:17;15.30;99.90
28069;DHT22;15382;47.578;8.086;2022-09-13T06:52:18;15.60;99.90
28069;DHT22;15382;47.578;8.086;2022-09-13T07:02:19;16.30;99.90
28069;DHT22;15382;47.578;8.086;2022-09-13T07:12:19;17.00;99.90
28069;DHT22;15382;47.578;8.086;2022-09-13T07:22:20;17.20;99.90
28069;DHT22;15382;47.578;8.086;2022-09-13T07:32:26;17.80;99.90
28069;DHT22;15382;47.578;8.086;2022-09-13T07:42:27;19.00;99.90
28069;DHT22;15382;47.578;8.086;2022-09-13T07:52:27;19.60;99.90
28069;DHT22;15382;47.578;8.086;2022-09-13T08:02:28;19.80;99.90
28069;DHT22;15382;47.578;8.086;2022-09-13T08:12:29;20.20;99.90
28069;DHT22;15382;47.578;8.086;2022-09-13T08:22:30;21.10;99.90
28069;DHT22;15382;47.578;8.086;2022-09-13T08:32:31;21.10;99.90
28069;DHT22;15382;47.578;8.086;2022-09-13T08:42:53;20.70;99.90
28069;DHT22;15382;47.578;8.086;2022-09-13T08:53:16;22.70;99.90
28069;DHT22;15382;47.578;8.086;2022-09-13T09:03:23;23.60;99.90
28069;DHT22;15382;47.578;8.086;2022-09-13T09:13:39;23.00;99.90
28069;DHT22;15382;47.578;8.086;2022-09-13T09:23:49;24.50;99.90
28069;DHT22;15382;47.578;8.086;2022-09-13T09:33:55;25.20;99.90
28069;DHT22;15382;47.578;8.086;2022-09-13T09:44:19;25.50;99.90
28069;DHT22;15382;47.578;8.086;2022-09-13T09:54:21;25.90;99.90
28069;DHT22;15382;47.578;8.086;2022-09-13T10:04:23;27.40;99.90
28069;DHT22;15382;47.578;8.086;2022-09-13T10:14:45;27.50;99.90
28069;DHT22;15382;47.578;8.086;2022-09-13T10:24:46;27.50;99.90
28069;DHT22;15382;47.578;8.086;2022-09-13T10:34:48;28.00;99.90
28069;DHT22;15382;47.578;8.086;2022-09-13T10:44:56;27.30;99.90
28069;DHT22;15382;47.578;8.086;2022-09-13T11:26:33;28.10;99.90
28069;DHT22;15382;47.578;8.086;2022-09-13T11:47:10;27.40;99.90
28069;DHT22;15382;47.578;8.086;2022-09-13T11:57:33;28.40;99.90
28069;DHT22;15382;47.578;8.086;2022-09-13T12:07:48;28.50;99.90
28069;DHT22;15382;47.578;8.086;2022-09-13T12:17:57;29.40;99.90
28069;DHT22;15382;47.578;8.086;2022-09-13T12:28:22;28.80;99.90
28069;DHT22;15382;47.578;8.086;2022-09-13T13:09:52;27.50;99.90
28069;DHT22;15382;47.578;8.086;2022-09-13T13:19:55;26.70;99.90
28069;DHT22;15382;47.578;8.086;2022-09-13T13:40:39;26.90;99.90
28069;DHT22;15382;47.578;8.086;2022-09-13T14:01:20;27.30;99.90
28069;DHT22;15382;47.578;8.086;2022-09-13T14:11:44;27.30;99.90
28069;DHT22;15382;47.578;8.086;2022-09-13T14:22:20;28.10;99.90
28069;DHT22;15382;47.578;8.086;2022-09-13T14:32:23;27.80;99.90
28069;DHT22;15382;47.578;8.086;2022-09-13T14:42:25;27.50;99.90
28069;DHT22;15382;47.578;8.086;2022-09-13T14:52:32;27.20;99.90
28069;DHT22;15382;47.578;8.086;2022-09-13T15:02:37;27.20;99.90
28069;DHT22;15382;47.578;8.086;2022-09-13T15:13:09;26.60;99.90
28069;DHT22;15382;47.578;8.086;2022-09-13T15:23:15;26.40;99.90
28069;DHT22;15382;47.578;8.086;2022-09-13T15:33:23;25.80;99.90
28069;DHT22;15382;47.578;8.086;2022-09-13T15:43:24;25.60;99.90
28069;DHT22;15382;47.578;8.086;2022-09-13T15:53:25;25.00;99.90
28069;DHT22;15382;47.578;8.086;2022-09-13T16:03:26;24.90;99.90
28069;DHT22;15382;47.578;8.086;2022-09-13T16:13:28;25.20;99.90
28069;DHT22;15382;47.578;8.086;2022-09-13T16:23:28;25.00;99.90
28069;DHT22;15382;47.578;8.086;2022-09-13T16:33:29;24.70;99.90
28069;DHT22;15382;47.578;8.086;2022-09-13T16:43:31;24.30;99.90
28069;DHT22;15382;47.578;8.086;2022-09-13T16:53:34;23.70;99.90
28069;DHT22;15382;47.578;8.086;2022-09-13T17:03:35;23.40;99.90
28069;DHT22;15382;47.578;8.086;2022-09-13T17:13:38;23.50;99.90
28069;DHT22;15382;47.578;8.086;2022-09-13T17:23:39;23.30;99.90
28069;DHT22;15382;47.578;8.086;2022-09-13T17:33:40;23.00;99.90
28069;DHT22;15382;47.578;8.086;2022-09-13T17:43:42;23.00;99.90
28069;DHT22;15382;47.578;8.086;2022-09-13T17:53:45;22.80;99.90
28069;DHT22;15382;47.578;8.086;2022-09-13T18:03:46;22.80;99.90
28069;DHT22;15382;47.578;8.086;2022-09-13T18:13:47;22.60;99.90
28069;DHT22;15382;47.578;8.086;2022-09-13T18:23:50;22.30;99.90
28069;DHT22;15382;47.578;8.086;2022-09-13T18:33:56;21.40;99.90
28069;DHT22;15382;47.578;8.086;2022-09-13T18:43:57;21.40;99.90
28069;DHT22;15382;47.578;8.086;2022-09-13T18:53:59;21.10;99.90
28069;DHT22;15382;47.578;8.086;2022-09-13T19:04:15;21.00;99.90
28069;DHT22;15382;47.578;8.086;2022-09-13T19:14:22;20.80;99.90
28069;DHT22;15382;47.578;8.086;2022-09-13T19:24:23;20.20;99.90
28069;DHT22;15382;47.578;8.086;2022-09-13T19:34:24;20.10;99.90
28069;DHT22;15382;47.578;8.086;2022-09-13T19:44:25;20.40;99.90
28069;DHT22;15382;47.578;8.086;2022-09-13T19:54:26;20.10;99.90
28069;DHT22;15382;47.578;8.086;2022-09-13T20:04:27;20.20;99.90
28069;DHT22;15382;47.578;8.086;2022-09-13T20:14:30;20.30;99.90
28069;DHT22;15382;47.578;8.086;2022-09-13T20:24:31;20.40;99.90
28069;DHT22;15382;47.578;8.086;2022-09-13T20:34:32;20.30;99.90
28069;DHT22;15382;47.578;8.086;2022-09-13T20:44:34;20.00;99.90
28069;DHT22;15382;47.578;8.086;2022-09-13T20:54:35;19.60;99.90
28069;DHT22;15382;47.578;8.086;2022-09-13T21:04:39;19.50;99.90
28069;DHT22;15382;47.578;8.086;2022-09-13T21:14:40;19.40;99.90
28069;DHT22;15382;47.578;8.086;2022-09-13T21:24:41;19.40;99.90
28069;DHT22;15382;47.578;8.086;2022-09-13T21:34:42;19.40;99.90
28069;DHT22;15382;47.578;8.086;2022-09-13T21:44:43;19.40;99.90
28069;DHT22;15382;47.578;8.086;2022-09-13T21:54:44;19.50;99.90
28069;DHT22;15382;47.578;8.086;2022-09-13T22:04:45;19.20;99.90
28069;DHT22;15382;47.578;8.086;2022-09-13T22:14:46;19.30;99.90
28069;DHT22;15382;47.578;8.086;2022-09-13T22:24:48;19.40;99.90
28069;DHT22;15382;47.578;8.086;2022-09-13T22:34:48;19.40;99.90
28069;DHT22;15382;47.578;8.086;2022-09-13T22:44:49;19.20;99.90
28069;DHT22;15382;47.578;8.086;2022-09-13T22:54:50;19.10;99.90
28069;DHT22;15382;47.578;8.086;2022-09-13T23:04:51;19.20;99.90
28069;DHT22;15382;47.578;8.086;2022-09-13T23:14:52;19.30;99.90
28069;DHT22;15382;47.578;8.086;2022-09-13T23:24:53;19.00;99.90
28069;DHT22;15382;47.578;8.086;2022-09-13T23:34:53;18.80;99.90
28069;DHT22;15382;47.578;8.086;2022-09-13T23:44:54;18.70;99.90
28069;DHT22;15382;47.578;8.086;2022-09-13T23:54:55;18.90;99.90
